Gretna, Virginia
Current Conditions -  °F | °C
As of 3:15 AM on Sunday 26 Oct 2014 (Local Time) from K0V4 Reporting Station
Clear Clear  
Wind Chill: 59°   Ceiling: Unl
Heat Index: 59°   Visibility: 10mi
Dew Point: 53°   Wind: 8mph
Humidity: 81%   Direction: 230°SW
Pressure: 29.8"   Gusts: NA
Location:  36.95°N, 79.36°W
Report Text: K0V4 260715Z AUTO 23007KT 10SM CLR 15/12 A2980 RMK AO1 T01480115
Loading
Personal Weather Stations






























Interactive Weather Map New forecast layout! Learn more

10-Day Weather Forecast

Advertisements
Track Severe Weather on mobile